sensor_id;sensor_type;location;lat;lon;timestamp;pressure;altitude;pressure_sealevel;temperature;humidity
77077;BME280;66003;52.286;104.306;2023-06-22T00:00:58;95382.22;;;42.61;10.89
77077;BME280;66003;52.286;104.306;2023-06-22T00:03:26;95388.66;;;42.00;11.69
77077;BME280;66003;52.286;104.306;2023-06-22T00:05:53;95391.34;;;41.01;12.01
77077;BME280;66003;52.286;104.306;2023-06-22T00:08:19;95379.34;;;39.18;13.02
77077;BME280;66003;52.286;104.306;2023-06-22T00:10:46;95367.94;;;37.04;14.38
77077;BME280;66003;52.286;104.306;2023-06-22T00:13:13;95397.88;;;35.87;15.37
77077;BME280;66003;52.286;104.306;2023-06-22T00:15:41;95375.19;;;34.88;16.17
77077;BME280;66003;52.286;104.306;2023-06-22T00:18:09;95372.22;;;34.82;16.28
77077;BME280;66003;52.286;104.306;2023-06-22T00:20:36;95365.06;;;36.42;15.36
77077;BME280;66003;52.286;104.306;2023-06-22T00:23:04;95391.53;;;38.80;13.57
77077;BME280;66003;52.286;104.306;2023-06-22T00:25:38;95387.50;;;40.93;12.26
77077;BME280;66003;52.286;104.306;2023-06-22T00:28:07;95384.06;;;42.47;11.58
77077;BME280;66003;52.286;104.306;2023-06-22T00:30:34;95373.53;;;43.44;10.33
77077;BME280;66003;52.286;104.306;2023-06-22T00:33:01;95359.25;;;43.37;10.56
77077;BME280;66003;52.286;104.306;2023-06-22T00:35:27;95381.63;;;43.01;10.50
77077;BME280;66003;52.286;104.306;2023-06-22T00:37:58;95357.06;;;43.65;10.02
77077;BME280;66003;52.286;104.306;2023-06-22T00:40:30;95373.03;;;45.01;9.67
77077;BME280;66003;52.286;104.306;2023-06-22T00:42:57;95364.72;;;46.21;8.57
77077;BME280;66003;52.286;104.306;2023-06-22T00:45:24;95361.16;;;46.79;8.60
77077;BME280;66003;52.286;104.306;2023-06-22T00:47:52;95368.47;;;47.14;8.72
77077;BME280;66003;52.286;104.306;2023-06-22T00:50:22;95354.75;;;48.41;8.04
77077;BME280;66003;52.286;104.306;2023-06-22T00:52:52;95347.31;;;48.79;7.89
77077;BME280;66003;52.286;104.306;2023-06-22T00:55:20;95346.38;;;49.13;7.61
77077;BME280;66003;52.286;104.306;2023-06-22T00:57:48;95340.75;;;49.72;7.73
77077;BME280;66003;52.286;104.306;2023-06-22T01:00:16;95342.88;;;49.79;7.44
77077;BME280;66003;52.286;104.306;2023-06-22T01:02:46;95353.47;;;49.78;7.45
77077;BME280;66003;52.286;104.306;2023-06-22T01:05:16;95340.97;;;49.81;7.26
77077;BME280;66003;52.286;104.306;2023-06-22T01:11:45;95323.78;;;49.95;7.35
77077;BME280;66003;52.286;104.306;2023-06-22T01:14:45;95318.63;;;49.19;7.50
77077;BME280;66003;52.286;104.306;2023-06-22T01:17:15;95326.53;;;49.57;7.56
77077;BME280;66003;52.286;104.306;2023-06-22T01:19:45;95323.22;;;50.04;6.90
77077;BME280;66003;52.286;104.306;2023-06-22T01:22:25;95309.78;;;50.57;6.70
77077;BME280;66003;52.286;104.306;2023-06-22T01:25:02;95315.09;;;50.61;6.98
77077;BME280;66003;52.286;104.306;2023-06-22T01:30:13;95307.47;;;49.87;7.06
77077;BME280;66003;52.286;104.306;2023-06-22T01:32:41;95297.56;;;47.67;7.95
77077;BME280;66003;52.286;104.306;2023-06-22T01:35:08;95279.31;;;46.28;9.68
77077;BME280;66003;52.286;104.306;2023-06-22T01:37:37;95284.22;;;45.45;9.59
77077;BME280;66003;52.286;104.306;2023-06-22T01:40:05;95290.47;;;43.73;10.06
77077;BME280;66003;52.286;104.306;2023-06-22T01:42:32;95253.34;;;41.68;11.75
77077;BME280;66003;52.286;104.306;2023-06-22T01:44:59;95254.50;;;40.94;11.92
77077;BME280;66003;52.286;104.306;2023-06-22T01:47:32;95247.91;;;42.48;11.15
77077;BME280;66003;52.286;104.306;2023-06-22T01:49:59;95262.28;;;44.57;10.13
77077;BME280;66003;52.286;104.306;2023-06-22T01:52:26;95257.00;;;46.25;10.05
77077;BME280;66003;52.286;104.306;2023-06-22T01:54:52;95245.06;;;47.87;9.27
77077;BME280;66003;52.286;104.306;2023-06-22T01:57:19;95260.38;;;49.41;7.72
77077;BME280;66003;52.286;104.306;2023-06-22T02:00:00;95251.34;;;51.19;7.12
77077;BME280;66003;52.286;104.306;2023-06-22T02:02:39;95241.25;;;51.26;7.15
77077;BME280;66003;52.286;104.306;2023-06-22T02:05:10;95227.09;;;50.55;7.05
77077;BME280;66003;52.286;104.306;2023-06-22T02:07:54;95238.53;;;51.36;6.91
77077;BME280;66003;52.286;104.306;2023-06-22T02:10:24;95220.06;;;50.49;6.82
77077;BME280;66003;52.286;104.306;2023-06-22T02:12:53;95209.09;;;51.01;7.53
77077;BME280;66003;52.286;104.306;2023-06-22T02:15:20;95219.84;;;51.57;7.20
77077;BME280;66003;52.286;104.306;2023-06-22T02:17:47;95207.03;;;51.66;7.45
77077;BME280;66003;52.286;104.306;2023-06-22T02:20:15;95207.81;;;51.91;6.93
77077;BME280;66003;52.286;104.306;2023-06-22T02:22:41;95190.19;;;52.27;7.10
77077;BME280;66003;52.286;104.306;2023-06-22T02:25:07;95205.38;;;52.82;6.65
77077;BME280;66003;52.286;104.306;2023-06-22T02:27:34;95194.69;;;52.99;6.02
77077;BME280;66003;52.286;104.306;2023-06-22T02:30:00;95177.06;;;52.76;6.04
77077;BME280;66003;52.286;104.306;2023-06-22T02:32:26;95182.72;;;52.32;6.23
77077;BME280;66003;52.286;104.306;2023-06-22T02:34:53;95165.66;;;51.33;7.11
77077;BME280;66003;52.286;104.306;2023-06-22T02:37:19;95177.00;;;51.08;7.08
77077;BME280;66003;52.286;104.306;2023-06-22T02:39:45;95180.19;;;50.72;6.97
77077;BME280;66003;52.286;104.306;2023-06-22T02:42:11;95173.78;;;50.56;7.43
77077;BME280;66003;52.286;104.306;2023-06-22T02:44:37;95177.00;;;50.60;7.44
77077;BME280;66003;52.286;104.306;2023-06-22T02:47:04;95191.88;;;50.20;7.58
77077;BME280;66003;52.286;104.306;2023-06-22T02:49:30;95170.47;;;49.89;7.70
77077;BME280;66003;52.286;104.306;2023-06-22T02:52:00;95167.63;;;49.59;7.68
77077;BME280;66003;52.286;104.306;2023-06-22T02:54:43;95165.53;;;49.44;7.89
77077;BME280;66003;52.286;104.306;2023-06-22T02:57:12;95160.28;;;47.68;8.72
77077;BME280;66003;52.286;104.306;2023-06-22T02:59:40;95151.25;;;44.98;9.85
77077;BME280;66003;52.286;104.306;2023-06-22T03:02:09;95167.25;;;42.15;11.24
77077;BME280;66003;52.286;104.306;2023-06-22T03:04:35;95139.59;;;39.81;12.96
77077;BME280;66003;52.286;104.306;2023-06-22T03:07:02;95095.69;;;37.75;15.00
77077;BME280;66003;52.286;104.306;2023-06-22T03:09:31;95139.75;;;36.92;15.61
77077;BME280;66003;52.286;104.306;2023-06-22T03:11:57;95126.16;;;35.69;16.39
77077;BME280;66003;52.286;104.306;2023-06-22T03:14:23;95120.03;;;35.23;16.56
77077;BME280;66003;52.286;104.306;2023-06-22T03:16:49;95106.31;;;34.68;17.07
77077;BME280;66003;52.286;104.306;2023-06-22T03:19:15;95125.31;;;34.51;17.33
77077;BME280;66003;52.286;104.306;2023-06-22T03:21:42;95146.56;;;34.18;18.54
77077;BME280;66003;52.286;104.306;2023-06-22T03:24:08;95155.81;;;33.96;18.14
77077;BME280;66003;52.286;104.306;2023-06-22T03:26:34;95156.72;;;33.93;18.58
77077;BME280;66003;52.286;104.306;2023-06-22T03:29:01;95159.34;;;33.97;19.16
77077;BME280;66003;52.286;104.306;2023-06-22T03:31:27;95133.00;;;33.92;19.24
77077;BME280;66003;52.286;104.306;2023-06-22T03:33:53;95149.97;;;34.13;18.68
77077;BME280;66003;52.286;104.306;2023-06-22T03:36:19;95142.22;;;33.89;18.71
77077;BME280;66003;52.286;104.306;2023-06-22T03:38:47;95140.72;;;34.06;19.17
77077;BME280;66003;52.286;104.306;2023-06-22T03:41:13;95144.91;;;34.29;18.77
77077;BME280;66003;52.286;104.306;2023-06-22T03:43:40;95134.41;;;34.24;19.03
77077;BME280;66003;52.286;104.306;2023-06-22T03:46:06;95134.09;;;34.50;19.69
77077;BME280;66003;52.286;104.306;2023-06-22T03:48:32;95105.56;;;34.67;19.36
77077;BME280;66003;52.286;104.306;2023-06-22T03:51:00;95103.31;;;34.99;18.30
77077;BME280;66003;52.286;104.306;2023-06-22T03:53:27;95094.56;;;35.24;18.01
77077;BME280;66003;52.286;104.306;2023-06-22T03:55:53;95105.63;;;35.66;17.95
77077;BME280;66003;52.286;104.306;2023-06-22T03:58:21;95112.69;;;36.00;18.19
77077;BME280;66003;52.286;104.306;2023-06-22T04:00:51;95096.97;;;35.97;17.55
77077;BME280;66003;52.286;104.306;2023-06-22T04:03:19;95088.84;;;36.08;18.00
77077;BME280;66003;52.286;104.306;2023-06-22T04:05:45;95103.78;;;36.35;18.27
77077;BME280;66003;52.286;104.306;2023-06-22T04:08:13;95089.38;;;36.36;17.93
77077;BME280;66003;52.286;104.306;2023-06-22T04:10:39;95085.81;;;36.36;18.46
77077;BME280;66003;52.286;104.306;2023-06-22T04:13:06;95096.03;;;36.68;17.99
77077;BME280;66003;52.286;104.306;2023-06-22T04:15:32;95096.91;;;36.74;18.30
77077;BME280;66003;52.286;104.306;2023-06-22T04:17:59;95082.88;;;36.83;18.55
77077;BME280;66003;52.286;104.306;2023-06-22T04:20:25;95069.34;;;36.76;18.06
77077;BME280;66003;52.286;104.306;2023-06-22T04:22:53;95081.44;;;36.73;17.92
77077;BME280;66003;52.286;104.306;2023-06-22T04:25:20;95057.22;;;36.50;18.32
77077;BME280;66003;52.286;104.306;2023-06-22T04:27:46;95064.53;;;36.47;18.45
77077;BME280;66003;52.286;104.306;2023-06-22T04:30:12;95068.16;;;36.39;18.58
77077;BME280;66003;52.286;104.306;2023-06-22T04:32:40;95044.63;;;36.10;18.77
77077;BME280;66003;52.286;104.306;2023-06-22T04:35:07;95041.50;;;35.94;18.65
77077;BME280;66003;52.286;104.306;2023-06-22T04:37:33;95063.41;;;35.77;19.36
77077;BME280;66003;52.286;104.306;2023-06-22T04:40:00;95039.22;;;35.44;19.77
77077;BME280;66003;52.286;104.306;2023-06-22T04:42:27;95039.53;;;35.13;19.48
77077;BME280;66003;52.286;104.306;2023-06-22T04:44:53;95028.72;;;34.83;19.75
77077;BME280;66003;52.286;104.306;2023-06-22T04:47:20;95021.88;;;34.51;20.73
77077;BME280;66003;52.286;104.306;2023-06-22T04:49:46;95001.25;;;34.42;20.05
77077;BME280;66003;52.286;104.306;2023-06-22T04:52:14;94995.91;;;34.02;21.02
77077;BME280;66003;52.286;104.306;2023-06-22T04:54:43;94994.38;;;33.92;20.78
77077;BME280;66003;52.286;104.306;2023-06-22T04:57:14;95007.75;;;34.12;20.87
77077;BME280;66003;52.286;104.306;2023-06-22T04:59:41;95005.44;;;34.20;20.91
77077;BME280;66003;52.286;104.306;2023-06-22T05:02:08;94979.38;;;34.17;21.86
77077;BME280;66003;52.286;104.306;2023-06-22T05:04:34;94964.44;;;34.15;22.09
77077;BME280;66003;52.286;104.306;2023-06-22T05:07:04;94975.84;;;34.17;22.00
77077;BME280;66003;52.286;104.306;2023-06-22T05:09:31;94960.44;;;34.16;21.28
77077;BME280;66003;52.286;104.306;2023-06-22T05:11:59;94971.22;;;34.14;21.32
77077;BME280;66003;52.286;104.306;2023-06-22T05:14:29;94933.81;;;33.18;21.82
77077;BME280;66003;52.286;104.306;2023-06-22T05:16:56;94970.72;;;33.06;22.05
77077;BME280;66003;52.286;104.306;2023-06-22T05:19:25;94956.09;;;33.05;22.86
77077;BME280;66003;52.286;104.306;2023-06-22T05:21:57;94968.97;;;33.48;22.60
77077;BME280;66003;52.286;104.306;2023-06-22T05:24:24;94971.59;;;33.97;22.89
77077;BME280;66003;52.286;104.306;2023-06-22T05:26:51;94975.59;;;34.57;22.12
77077;BME280;66003;52.286;104.306;2023-06-22T05:29:19;94979.28;;;35.20;21.04
77077;BME280;66003;52.286;104.306;2023-06-22T05:31:48;94969.00;;;35.59;21.67
77077;BME280;66003;52.286;104.306;2023-06-22T05:34:15;94953.28;;;35.94;20.57
77077;BME280;66003;52.286;104.306;2023-06-22T05:36:41;94945.78;;;36.15;20.14
77077;BME280;66003;52.286;104.306;2023-06-22T05:39:14;94960.75;;;36.47;19.72
77077;BME280;66003;52.286;104.306;2023-06-22T05:41:42;94958.53;;;36.66;19.53
77077;BME280;66003;52.286;104.306;2023-06-22T05:44:12;94955.69;;;37.71;18.71
77077;BME280;66003;52.286;104.306;2023-06-22T05:46:43;94964.25;;;37.27;18.99
77077;BME280;66003;52.286;104.306;2023-06-22T05:49:15;94929.31;;;36.91;19.14
77077;BME280;66003;52.286;104.306;2023-06-22T05:51:42;94944.00;;;36.91;19.56
77077;BME280;66003;52.286;104.306;2023-06-22T05:54:09;94926.50;;;36.56;19.42
77077;BME280;66003;52.286;104.306;2023-06-22T05:56:35;94906.84;;;36.15;19.48
77077;BME280;66003;52.286;104.306;2023-06-22T05:59:02;94925.75;;;35.96;20.23
77077;BME280;66003;52.286;104.306;2023-06-22T06:01:28;94931.78;;;35.80;20.88
77077;BME280;66003;52.286;104.306;2023-06-22T06:03:54;94922.81;;;35.61;20.78
77077;BME280;66003;52.286;104.306;2023-06-22T06:06:32;94945.03;;;35.85;21.01
77077;BME280;66003;52.286;104.306;2023-06-22T06:09:26;94952.69;;;35.75;20.89
77077;BME280;66003;52.286;104.306;2023-06-22T06:11:52;94931.78;;;35.80;21.42
77077;BME280;66003;52.286;104.306;2023-06-22T06:14:25;94942.94;;;36.24;20.84
77077;BME280;66003;52.286;104.306;2023-06-22T06:16:52;94924.31;;;36.15;20.53
77077;BME280;66003;52.286;104.306;2023-06-22T06:19:18;94933.25;;;36.34;20.55
77077;BME280;66003;52.286;104.306;2023-06-22T06:21:44;94925.75;;;36.40;20.76
77077;BME280;66003;52.286;104.306;2023-06-22T06:24:12;94919.91;;;36.38;20.37
77077;BME280;66003;52.286;104.306;2023-06-22T06:26:38;94912.59;;;36.41;20.31
77077;BME280;66003;52.286;104.306;2023-06-22T06:29:04;94904.34;;;36.17;20.68
77077;BME280;66003;52.286;104.306;2023-06-22T06:31:31;94900.31;;;36.18;20.59
77077;BME280;66003;52.286;104.306;2023-06-22T06:33:57;94895.91;;;36.26;20.84
77077;BME280;66003;52.286;104.306;2023-06-22T06:36:23;94909.66;;;36.30;20.94
77077;BME280;66003;52.286;104.306;2023-06-22T06:38:50;94899.28;;;36.01;20.63
77077;BME280;66003;52.286;104.306;2023-06-22T06:41:16;94903.91;;;35.74;21.41
77077;BME280;66003;52.286;104.306;2023-06-22T06:43:42;94896.84;;;35.50;21.89
77077;BME280;66003;52.286;104.306;2023-06-22T06:46:09;94873.72;;;35.20;21.52
77077;BME280;66003;52.286;104.306;2023-06-22T06:48:35;94878.81;;;35.21;22.44
77077;BME280;66003;52.286;104.306;2023-06-22T06:51:01;94901.13;;;35.36;22.47
77077;BME280;66003;52.286;104.306;2023-06-22T06:53:28;94904.44;;;35.64;22.82
77077;BME280;66003;52.286;104.306;2023-06-22T06:55:54;94882.47;;;35.66;22.56
77077;BME280;66003;52.286;104.306;2023-06-22T06:58:20;94869.06;;;35.94;22.75
77077;BME280;66003;52.286;104.306;2023-06-22T07:00:49;94867.72;;;36.04;22.55
77077;BME280;66003;52.286;104.306;2023-06-22T07:03:15;94866.00;;;35.92;22.73
77077;BME280;66003;52.286;104.306;2023-06-22T07:05:41;94865.81;;;35.80;22.58
77077;BME280;66003;52.286;104.306;2023-06-22T07:08:08;94878.97;;;35.95;22.88
77077;BME280;66003;52.286;104.306;2023-06-22T07:10:34;94885.47;;;35.77;22.97
77077;BME280;66003;52.286;104.306;2023-06-22T07:13:01;94870.66;;;35.56;23.06
77077;BME280;66003;52.286;104.306;2023-06-22T07:15:27;94885.25;;;35.51;23.35
77077;BME280;66003;52.286;104.306;2023-06-22T07:17:53;94871.72;;;35.20;23.32
77077;BME280;66003;52.286;104.306;2023-06-22T07:20:19;94890.25;;;34.99;24.02
77077;BME280;66003;52.286;104.306;2023-06-22T07:22:46;94866.38;;;34.69;24.19
77077;BME280;66003;52.286;104.306;2023-06-22T07:25:12;94869.25;;;34.51;23.92
77077;BME280;66003;52.286;104.306;2023-06-22T07:27:57;94884.91;;;34.63;24.21
77077;BME280;66003;52.286;104.306;2023-06-22T07:30:23;94886.53;;;34.79;24.71
77077;BME280;66003;52.286;104.306;2023-06-22T07:32:50;94882.34;;;34.83;24.15
77077;BME280;66003;52.286;104.306;2023-06-22T07:35:16;94882.63;;;35.09;24.18
77077;BME280;66003;52.286;104.306;2023-06-22T07:37:42;94881.28;;;35.43;24.08
77077;BME280;66003;52.286;104.306;2023-06-22T07:40:09;94853.22;;;35.56;23.58
77077;BME280;66003;52.286;104.306;2023-06-22T07:42:35;94864.88;;;35.83;23.50
77077;BME280;66003;52.286;104.306;2023-06-22T07:45:03;94873.28;;;35.60;24.51
77077;BME280;66003;52.286;104.306;2023-06-22T07:47:32;94870.09;;;35.13;25.30
77077;BME280;66003;52.286;104.306;2023-06-22T07:50:02;94879.00;;;34.70;25.52
77077;BME280;66003;52.286;104.306;2023-06-22T07:52:32;94888.56;;;34.78;26.00
77077;BME280;66003;52.286;104.306;2023-06-22T07:54:58;94892.88;;;34.37;26.44
77077;BME280;66003;52.286;104.306;2023-06-22T07:57:24;94867.78;;;33.89;26.36
77077;BME280;66003;52.286;104.306;2023-06-22T08:00:00;94895.06;;;33.72;26.95
77077;BME280;66003;52.286;104.306;2023-06-22T08:02:32;94916.00;;;33.55;26.84
77077;BME280;66003;52.286;104.306;2023-06-22T08:04:59;94905.41;;;33.26;27.67
77077;BME280;66003;52.286;104.306;2023-06-22T08:07:25;94932.56;;;32.91;27.78
77077;BME280;66003;52.286;104.306;2023-06-22T08:09:52;94916.16;;;32.57;27.89
77077;BME280;66003;52.286;104.306;2023-06-22T08:12:19;94931.34;;;32.43;28.52
77077;BME280;66003;52.286;104.306;2023-06-22T08:14:45;94943.59;;;32.33;28.16
77077;BME280;66003;52.286;104.306;2023-06-22T08:17:12;94927.25;;;31.73;29.11
77077;BME280;66003;52.286;104.306;2023-06-22T08:19:39;94934.25;;;31.65;29.36
77077;BME280;66003;52.286;104.306;2023-06-22T08:22:05;94915.53;;;31.47;29.75
77077;BME280;66003;52.286;104.306;2023-06-22T08:24:32;94927.53;;;31.53;29.69
77077;BME280;66003;52.286;104.306;2023-06-22T08:26:58;94925.38;;;31.48;30.16
77077;BME280;66003;52.286;104.306;2023-06-22T08:29:24;94938.25;;;31.51;30.10
77077;BME280;66003;52.286;104.306;2023-06-22T08:31:50;94900.25;;;31.34;30.00
77077;BME280;66003;52.286;104.306;2023-06-22T08:34:16;94925.88;;;31.56;29.94
77077;BME280;66003;52.286;104.306;2023-06-22T08:36:47;94915.16;;;31.58;30.09
77077;BME280;66003;52.286;104.306;2023-06-22T08:39:19;94916.25;;;31.61;29.86
77077;BME280;66003;52.286;104.306;2023-06-22T08:41:47;94922.31;;;31.68;29.57
77077;BME280;66003;52.286;104.306;2023-06-22T08:44:13;94935.06;;;31.75;29.07
77077;BME280;66003;52.286;104.306;2023-06-22T08:46:39;94915.03;;;31.62;28.41
77077;BME280;66003;52.286;104.306;2023-06-22T08:49:06;94938.78;;;31.59;27.89
77077;BME280;66003;52.286;104.306;2023-06-22T08:51:33;94933.22;;;31.50;28.06
77077;BME280;66003;52.286;104.306;2023-06-22T08:53:59;94913.41;;;31.30;27.92
77077;BME280;66003;52.286;104.306;2023-06-22T08:56:26;94932.56;;;31.46;28.53
77077;BME280;66003;52.286;104.306;2023-06-22T08:58:52;94924.66;;;31.57;28.23
77077;BME280;66003;52.286;104.306;2023-06-22T09:01:18;94922.22;;;31.59;28.12
77077;BME280;66003;52.286;104.306;2023-06-22T09:03:44;94929.47;;;31.44;27.92
77077;BME280;66003;52.286;104.306;2023-06-22T09:06:21;94883.50;;;30.81;28.46
77077;BME280;66003;52.286;104.306;2023-06-22T09:08:47;94916.84;;;30.86;29.17
77077;BME280;66003;52.286;104.306;2023-06-22T09:11:15;94941.22;;;30.88;29.63
77077;BME280;66003;52.286;104.306;2023-06-22T09:13:41;94952.16;;;30.79;29.24
77077;BME280;66003;52.286;104.306;2023-06-22T09:16:08;94936.06;;;30.65;29.66
77077;BME280;66003;52.286;104.306;2023-06-22T09:18:34;94957.91;;;30.59;30.26
77077;BME280;66003;52.286;104.306;2023-06-22T09:21:02;94964.31;;;30.43;30.49
77077;BME280;66003;52.286;104.306;2023-06-22T09:23:28;94981.28;;;30.29;31.03
77077;BME280;66003;52.286;104.306;2023-06-22T09:25:54;94975.38;;;30.02;30.90
77077;BME280;66003;52.286;104.306;2023-06-22T09:28:20;94970.91;;;29.79;31.25
77077;BME280;66003;52.286;104.306;2023-06-22T09:30:46;94959.63;;;29.61;31.93
77077;BME280;66003;52.286;104.306;2023-06-22T09:33:13;94968.19;;;29.50;31.85
77077;BME280;66003;52.286;104.306;2023-06-22T09:35:39;95001.00;;;29.57;32.32
77077;BME280;66003;52.286;104.306;2023-06-22T09:38:05;95001.22;;;29.50;31.91
77077;BME280;66003;52.286;104.306;2023-06-22T09:40:32;95001.84;;;29.25;32.22
77077;BME280;66003;52.286;104.306;2023-06-22T09:43:06;95008.63;;;29.04;32.88
77077;BME280;66003;52.286;104.306;2023-06-22T09:45:32;95014.22;;;28.85;33.21
77077;BME280;66003;52.286;104.306;2023-06-22T09:47:59;95006.63;;;28.72;33.27
77077;BME280;66003;52.286;104.306;2023-06-22T09:50:38;94978.44;;;28.52;33.31
77077;BME280;66003;52.286;104.306;2023-06-22T09:53:33;95001.69;;;28.48;34.13
77077;BME280;66003;52.286;104.306;2023-06-22T09:56:04;94972.75;;;28.07;33.91
77077;BME280;66003;52.286;104.306;2023-06-22T09:58:37;94966.47;;;28.07;34.29
77077;BME280;66003;52.286;104.306;2023-06-22T10:01:04;94958.81;;;27.78;35.00
77077;BME280;66003;52.286;104.306;2023-06-22T10:03:31;94953.00;;;27.56;35.89
77077;BME280;66003;52.286;104.306;2023-06-22T10:05:58;94939.72;;;27.51;36.34
77077;BME280;66003;52.286;104.306;2023-06-22T10:08:25;94900.06;;;27.36;37.41
77077;BME280;66003;52.286;104.306;2023-06-22T10:10:51;94878.84;;;27.17;38.01
77077;BME280;66003;52.286;104.306;2023-06-22T10:13:17;94902.91;;;27.09;38.00
77077;BME280;66003;52.286;104.306;2023-06-22T10:15:44;94932.25;;;27.12;39.55
77077;BME280;66003;52.286;104.306;2023-06-22T10:18:18;94936.41;;;27.20;38.46
77077;BME280;66003;52.286;104.306;2023-06-22T10:20:47;94958.38;;;27.40;39.32
77077;BME280;66003;52.286;104.306;2023-06-22T10:23:14;94991.00;;;27.58;38.81
77077;BME280;66003;52.286;104.306;2023-06-22T10:25:41;95001.72;;;27.72;39.09
77077;BME280;66003;52.286;104.306;2023-06-22T10:28:09;95003.25;;;27.73;39.53
77077;BME280;66003;52.286;104.306;2023-06-22T10:30:36;95025.06;;;27.80;39.15
77077;BME280;66003;52.286;104.306;2023-06-22T10:33:13;95023.38;;;27.86;39.15
77077;BME280;66003;52.286;104.306;2023-06-22T10:35:45;95016.13;;;27.76;40.65
77077;BME280;66003;52.286;104.306;2023-06-22T10:38:23;95020.22;;;27.88;40.00
77077;BME280;66003;52.286;104.306;2023-06-22T10:41:02;95022.69;;;27.82;40.78
77077;BME280;66003;52.286;104.306;2023-06-22T10:43:29;95025.69;;;27.68;40.38
77077;BME280;66003;52.286;104.306;2023-06-22T10:45:57;95024.78;;;27.75;40.46
77077;BME280;66003;52.286;104.306;2023-06-22T10:48:29;95006.28;;;27.59;40.92
77077;BME280;66003;52.286;104.306;2023-06-22T10:50:55;95036.84;;;27.81;40.40
77077;BME280;66003;52.286;104.306;2023-06-22T10:53:21;95044.94;;;27.88;40.96
77077;BME280;66003;52.286;104.306;2023-06-22T10:55:48;95007.19;;;27.72;40.67
77077;BME280;66003;52.286;104.306;2023-06-22T10:58:14;95011.34;;;27.80;40.42
77077;BME280;66003;52.286;104.306;2023-06-22T11:00:41;95042.69;;;27.83;40.81
77077;BME280;66003;52.286;104.306;2023-06-22T11:03:07;95031.63;;;27.66;41.03
77077;BME280;66003;52.286;104.306;2023-06-22T11:05:33;95014.88;;;27.38;42.21
77077;BME280;66003;52.286;104.306;2023-06-22T11:07:59;95027.97;;;27.26;41.92
77077;BME280;66003;52.286;104.306;2023-06-22T11:10:25;94983.94;;;26.90;43.02
77077;BME280;66003;52.286;104.306;2023-06-22T11:12:52;95054.41;;;27.17;43.89
77077;BME280;66003;52.286;104.306;2023-06-22T11:15:19;95086.97;;;27.15;45.53
77077;BME280;66003;52.286;104.306;2023-06-22T11:17:45;95092.16;;;27.09;45.18
77077;BME280;66003;52.286;104.306;2023-06-22T11:20:11;95116.59;;;27.00;45.59
77077;BME280;66003;52.286;104.306;2023-06-22T11:22:38;95109.31;;;26.86;45.19
77077;BME280;66003;52.286;104.306;2023-06-22T11:25:05;95082.69;;;26.60;46.88
77077;BME280;66003;52.286;104.306;2023-06-22T11:27:32;95078.13;;;26.50;46.12
77077;BME280;66003;52.286;104.306;2023-06-22T11:29:58;95072.75;;;26.43;46.51
77077;BME280;66003;52.286;104.306;2023-06-22T11:32:24;95071.34;;;26.31;45.80
77077;BME280;66003;52.286;104.306;2023-06-22T11:34:51;95068.16;;;26.33;46.53
77077;BME280;66003;52.286;104.306;2023-06-22T11:37:19;95075.38;;;26.19;46.87
77077;BME280;66003;52.286;104.306;2023-06-22T11:39:46;95090.28;;;26.15;46.75
77077;BME280;66003;52.286;104.306;2023-06-22T11:42:12;95075.44;;;26.12;47.72
77077;BME280;66003;52.286;104.306;2023-06-22T11:44:39;95051.28;;;26.04;46.55
77077;BME280;66003;52.286;104.306;2023-06-22T11:47:05;95054.19;;;25.89;46.50
77077;BME280;66003;52.286;104.306;2023-06-22T11:49:32;95066.72;;;25.90;46.82
77077;BME280;66003;52.286;104.306;2023-06-22T11:51:58;95038.72;;;25.76;46.86
77077;BME280;66003;52.286;104.306;2023-06-22T11:54:25;95063.84;;;25.67;46.97
77077;BME280;66003;52.286;104.306;2023-06-22T11:56:51;95054.63;;;25.47;47.98
77077;BME280;66003;52.286;104.306;2023-06-22T11:59:17;95090.41;;;25.67;47.80
77077;BME280;66003;52.286;104.306;2023-06-22T12:01:44;95094.38;;;25.59;48.23
77077;BME280;66003;52.286;104.306;2023-06-22T12:04:10;95047.09;;;25.58;48.77
77077;BME280;66003;52.286;104.306;2023-06-22T12:06:38;95010.09;;;25.46;50.43
77077;BME280;66003;52.286;104.306;2023-06-22T12:09:08;94989.94;;;25.30;49.29
77077;BME280;66003;52.286;104.306;2023-06-22T12:11:34;94994.84;;;25.08;50.45
77077;BME280;66003;52.286;104.306;2023-06-22T12:14:01;95071.69;;;25.21;51.15
77077;BME280;66003;52.286;104.306;2023-06-22T12:16:29;95097.09;;;25.14;52.13
77077;BME280;66003;52.286;104.306;2023-06-22T12:18:59;95099.34;;;25.30;52.71
77077;BME280;66003;52.286;104.306;2023-06-22T12:21:25;95065.06;;;25.18;52.33
77077;BME280;66003;52.286;104.306;2023-06-22T12:23:51;95100.41;;;25.39;53.04
77077;BME280;66003;52.286;104.306;2023-06-22T12:26:17;95090.31;;;25.33;51.85
77077;BME280;66003;52.286;104.306;2023-06-22T12:28:45;95087.91;;;25.38;51.15
77077;BME280;66003;52.286;104.306;2023-06-22T12:31:11;95109.75;;;25.45;51.43
77077;BME280;66003;52.286;104.306;2023-06-22T12:33:37;95123.16;;;25.29;51.82
77077;BME280;66003;52.286;104.306;2023-06-22T12:36:04;95094.41;;;25.10;51.78
77077;BME280;66003;52.286;104.306;2023-06-22T12:38:30;95115.41;;;25.24;51.50
77077;BME280;66003;52.286;104.306;2023-06-22T12:40:56;95140.66;;;25.39;51.65
77077;BME280;66003;52.286;104.306;2023-06-22T12:43:23;95133.69;;;25.34;51.91
77077;BME280;66003;52.286;104.306;2023-06-22T12:45:49;95128.63;;;25.29;52.54
77077;BME280;66003;52.286;104.306;2023-06-22T12:48:15;95107.53;;;25.30;51.78
77077;BME280;66003;52.286;104.306;2023-06-22T12:50:42;95096.09;;;24.97;53.28